메인 페이지
METAR-TAF:

METAR-TAF

공항 :

버밍엄 공항

버밍엄, 잉글랜드

위도: 52-27N, 경도: 001-44W, 고도: 99m

현재 날씨관측

예보는 30분 전, 11:50시(UTC)에 발표되었습니다.
8kt남남동풍과 서남서풍을 오가는
온도 19°C
습도 73%
기압 1020 hPa
시정 10km 이상
고도 2500ft 상공 구름 보통

METAR: EGBB 241150Z 18008KT 150V240 9999 SCT025 19/14 Q1020

시각: 13:20 (12:20 UTC)

예보

예보는 1 시간 25분 전, 10:55시(UTC)에 발표되었습니다.
예보 대상 시간: 24일 12시부터 25일 12시까지 (UTC)
남남서8kt
시정 10km 이상
고도 2000ft 상공 구름 보통
확률 30% :
일시적
24일 12시부터 24일 20시까지 (UTC)
시정: 7000m
소나기
확률 30% :
일시적
24일 20시부터 24일 22시까지 (UTC)
시정: 8000m
고도 1400ft 상공 구름 많음
약한비
전환 중
24일 22시부터 25일 01시까지 (UTC)
고도 1000ft 상공 구름 많음
일시적
24일 22시부터 25일 09시까지 (UTC)
시정: 6000m
비, 약한비, 이슬비
확률 40% :
일시적
25일 01시부터 25일 08시까지 (UTC)
시정: 3000m
고도 400ft 상공 구름 많음
박무
전환 중
25일 08시부터 25일 10시까지 (UTC)
고도 4000ft 상공 구름 보통

TAF: EGBB 241055Z 2412/2512 20008KT 9999 SCT020 PROB30 TEMPO 2412/2420 7000 SHRA PROB30 TEMPO 2420/2422 8000 -RA BKN014 BECMG 2422/2501 BKN010 TEMPO 2422/2509 6000 RA -RADZ PROB40 TEMPO 2501/2508 3000 BR BKN004 BECMG 2508/2510 SCT040

4,000개 이상의 공항 관측 자료 및 예보 (METAR 및 TAF 보고).

지도상에서 검색 가능한 기상관측소가 노란 점과 빨간 점으로 표시되어 있습니다.

기상관측소 명을 보려면 표시 위로 마우스를 이동하세요.

날씨 관측과 예보를 보려면 클릭하세요.

지도 변경 : 확대하려면 엑스 표시가 있는 녹색 버튼, 축소하려면 빼기 표시가 있는 녹색 버튼, 다음 페이지의 지도를 보려면 녹색 화살표를 클릭하세요.


METAR-TAF: